createdAt,value
2018-09-15T00:01:02.142Z,95.60
2018-09-15T00:03:31.311Z,95.50
2018-09-15T00:06:00.503Z,95.50
2018-09-15T00:08:29.677Z,95.60
2018-09-15T00:10:58.875Z,95.70
2018-09-15T00:13:28.053Z,95.70
2018-09-15T00:15:57.240Z,95.60
2018-09-15T00:18:26.421Z,95.60
2018-09-15T00:20:55.653Z,95.50
2018-09-15T00:23:24.837Z,95.20
2018-09-15T00:25:54.025Z,95.40
2018-09-15T00:28:23.213Z,95.60
2018-09-15T00:30:52.430Z,96.00
2018-09-15T00:33:21.621Z,95.60
2018-09-15T00:35:50.813Z,95.50
2018-09-15T00:38:22.917Z,95.60
2018-09-15T00:40:52.104Z,95.70
2018-09-15T00:43:21.299Z,95.60
2018-09-15T00:45:50.507Z,95.60
2018-09-15T00:48:19.668Z,95.60
2018-09-15T00:50:48.860Z,95.50
2018-09-15T00:53:18.036Z,95.60
2018-09-15T00:55:47.253Z,95.60
2018-09-15T00:58:16.429Z,95.40
2018-09-15T01:00:45.636Z,95.40
2018-09-15T01:03:14.811Z,95.40
2018-09-15T01:05:44.002Z,95.50
2018-09-15T01:08:13.185Z,95.50
2018-09-15T01:10:42.396Z,95.50
2018-09-15T01:13:11.563Z,95.60
2018-09-15T01:15:40.781Z,95.70
2018-09-15T01:18:10.337Z,95.80
2018-09-15T01:20:39.520Z,95.90
2018-09-15T01:23:08.694Z,95.90
2018-09-15T01:25:37.919Z,95.90
2018-09-15T01:28:07.088Z,95.80
2018-09-15T01:30:36.284Z,95.80
2018-09-15T01:33:05.458Z,95.70
2018-09-15T01:35:34.652Z,95.80
2018-09-15T01:38:03.820Z,95.80
2018-09-15T01:40:33.012Z,95.90
2018-09-15T01:43:02.168Z,95.80
2018-09-15T01:45:31.364Z,95.80
2018-09-15T01:48:06.837Z,95.70
2018-09-15T01:50:36.049Z,95.70
2018-09-15T01:53:05.224Z,95.80
2018-09-15T01:55:34.436Z,95.70
2018-09-15T01:58:03.625Z,95.60
2018-09-15T02:00:32.823Z,95.60
2018-09-15T02:03:01.992Z,95.60
2018-09-15T02:05:31.185Z,95.50
2018-09-15T02:08:00.365Z,95.60
2018-09-15T02:10:29.572Z,95.50
2018-09-15T02:12:58.737Z,95.50
2018-09-15T02:15:27.932Z,95.30
2018-09-15T02:17:57.152Z,95.40
2018-09-15T02:20:26.341Z,95.90
2018-09-15T02:22:55.577Z,95.60
2018-09-15T02:25:24.735Z,95.60
2018-09-15T02:27:53.920Z,95.90
2018-09-15T02:30:23.099Z,95.60
2018-09-15T02:32:52.297Z,95.70
2018-09-15T02:35:21.488Z,95.80
2018-09-15T02:37:50.680Z,95.80
2018-09-15T02:40:19.879Z,95.90
2018-09-15T02:42:49.304Z,95.90
2018-09-15T02:45:18.484Z,96.10
2018-09-15T02:47:47.677Z,96.00
2018-09-15T02:50:16.850Z,96.10
2018-09-15T02:52:46.164Z,96.10
2018-09-15T02:55:15.338Z,96.00
2018-09-15T02:57:44.524Z,96.00
2018-09-15T03:00:13.732Z,95.80
2018-09-15T03:02:42.928Z,95.90
2018-09-15T03:05:12.095Z,95.70
2018-09-15T03:07:41.280Z,95.80
2018-09-15T03:10:10.477Z,95.80
2018-09-15T03:12:39.668Z,95.90
2018-09-15T03:15:08.868Z,95.90
2018-09-15T03:17:38.048Z,96.20
2018-09-15T03:20:07.235Z,95.90
2018-09-15T03:22:36.639Z,96.00
2018-09-15T03:25:05.815Z,96.10
2018-09-15T03:27:35.001Z,96.00
2018-09-15T03:30:04.188Z,95.90
2018-09-15T03:32:33.378Z,95.80
2018-09-15T03:35:02.567Z,95.90
2018-09-15T03:37:31.802Z,96.30
2018-09-15T03:40:00.986Z,96.30
2018-09-15T03:42:30.173Z,96.40
2018-09-15T03:44:59.344Z,96.40
2018-09-15T03:47:28.580Z,96.30
2018-09-15T03:49:57.748Z,96.20
2018-09-15T03:52:26.939Z,95.90
2018-09-15T03:54:56.117Z,95.80
2018-09-15T03:57:25.320Z,95.60
2018-09-15T03:59:54.561Z,95.50
2018-09-15T04:02:23.732Z,95.30
2018-09-15T04:04:52.933Z,95.20
2018-09-15T04:07:22.129Z,95.00
2018-09-15T04:09:51.316Z,95.00
2018-09-15T04:12:20.508Z,95.00
2018-09-15T04:14:49.677Z,95.00
2018-09-15T04:17:18.876Z,95.10
2018-09-15T04:19:48.041Z,95.20
2018-09-15T04:22:17.238Z,95.00
2018-09-15T04:24:46.420Z,94.80
2018-09-15T04:27:15.680Z,94.70
2018-09-15T04:29:44.852Z,94.70
2018-09-15T04:32:14.073Z,94.80
2018-09-15T04:34:43.244Z,95.00
2018-09-15T04:37:12.438Z,95.10
2018-09-15T04:39:41.600Z,95.00
2018-09-15T04:42:10.800Z,95.20
2018-09-15T04:44:39.978Z,95.00
2018-09-15T04:47:09.178Z,95.00
2018-09-15T04:49:38.348Z,95.00
2018-09-15T04:52:07.556Z,95.10
2018-09-15T04:54:36.736Z,95.10
2018-09-15T04:57:06.061Z,95.20
2018-09-15T04:59:35.251Z,95.00
2018-09-15T05:02:04.461Z,95.00
2018-09-15T05:04:33.644Z,94.90
2018-09-15T05:07:02.849Z,94.90
2018-09-15T05:09:32.035Z,93.80
2018-09-15T05:12:01.236Z,94.30
2018-09-15T05:14:30.404Z,94.30
2018-09-15T05:16:59.695Z,94.60
2018-09-15T05:19:28.901Z,94.80
2018-09-15T05:21:58.100Z,95.00
2018-09-15T05:24:27.303Z,94.90
2018-09-15T05:26:56.476Z,94.90
2018-09-15T05:29:25.671Z,95.00
2018-09-15T05:31:54.852Z,95.00
2018-09-15T05:34:24.037Z,95.10
2018-09-15T05:36:53.208Z,95.20
2018-09-15T05:39:22.396Z,95.50
2018-09-15T05:41:51.573Z,95.60
2018-09-15T05:44:20.780Z,95.60
2018-09-15T05:46:49.961Z,95.50
2018-09-15T05:49:19.675Z,95.40
2018-09-15T05:51:48.865Z,95.00
2018-09-15T05:54:18.058Z,95.10
2018-09-15T05:56:47.300Z,94.60
2018-09-15T05:59:16.521Z,94.50
2018-09-15T06:01:45.822Z,94.50
2018-09-15T06:04:15.045Z,94.10
2018-09-15T06:06:44.317Z,94.20
2018-09-15T06:09:13.484Z,94.10
2018-09-15T06:11:43.693Z,93.60
2018-09-15T06:14:12.888Z,93.70
2018-09-15T06:16:42.068Z,93.40
2018-09-15T06:19:11.289Z,93.20
2018-09-15T06:21:40.465Z,92.50
2018-09-15T06:24:09.668Z,92.50
2018-09-15T06:26:38.858Z,92.70
2018-09-15T06:29:08.073Z,92.70
2018-09-15T06:31:37.249Z,92.60
2018-09-15T06:34:06.730Z,93.10
2018-09-15T06:36:35.909Z,92.50
2018-09-15T06:39:08.309Z,92.30
2018-09-15T06:41:37.791Z,92.00
2018-09-15T06:44:07.092Z,91.70
2018-09-15T06:46:37.389Z,92.00
2018-09-15T06:49:06.587Z,92.10
2018-09-15T06:51:35.751Z,92.00
2018-09-15T06:54:04.944Z,91.90
2018-09-15T06:56:34.145Z,91.70
2018-09-15T06:59:03.341Z,91.30
2018-09-15T07:01:32.555Z,90.60
2018-09-15T07:04:01.752Z,88.50
2018-09-15T07:06:30.937Z,86.60
2018-09-15T07:09:00.128Z,86.10
2018-09-15T07:11:29.309Z,85.50
2018-09-15T07:13:58.500Z,84.60
2018-09-15T07:16:27.705Z,84.60
2018-09-15T07:18:56.917Z,83.70
2018-09-15T07:21:26.116Z,85.40
2018-09-15T07:23:55.307Z,84.00
2018-09-15T07:26:24.505Z,82.70
2018-09-15T07:28:53.728Z,84.20
2018-09-15T07:31:22.955Z,81.10
2018-09-15T07:33:55.102Z,81.50
2018-09-15T07:36:24.325Z,80.70
2018-09-15T07:38:53.520Z,81.30
2018-09-15T07:41:22.722Z,81.00
2018-09-15T07:43:51.940Z,80.70
2018-09-15T07:46:21.390Z,80.90
2018-09-15T07:48:50.591Z,79.70
2018-09-15T07:51:19.796Z,79.00
2018-09-15T07:53:49.021Z,78.90
2018-09-15T07:56:18.200Z,78.70
2018-09-15T07:58:47.425Z,79.30
2018-09-15T08:01:16.636Z,78.90
2018-09-15T08:03:46.733Z,77.90
2018-09-15T08:06:16.076Z,77.60
2018-09-15T08:08:45.284Z,77.40
2018-09-15T08:11:14.480Z,77.80
2018-09-15T08:13:43.684Z,76.30
2018-09-15T08:16:14.283Z,76.30
2018-09-15T08:18:43.528Z,76.00
2018-09-15T08:21:12.724Z,75.70
2018-09-15T08:23:41.924Z,75.30
2018-09-15T08:26:11.131Z,76.10
2018-09-15T08:28:40.333Z,75.50
2018-09-15T08:31:09.538Z,74.80
2018-09-15T08:33:38.772Z,75.40
2018-09-15T08:36:08.089Z,75.10
2018-09-15T08:38:37.304Z,74.60
2018-09-15T08:41:06.624Z,74.70
2018-09-15T08:43:35.764Z,75.00
2018-09-15T08:46:04.968Z,73.20
2018-09-15T08:48:34.192Z,72.80
2018-09-15T08:51:03.384Z,73.50
2018-09-15T08:53:32.581Z,73.10
2018-09-15T08:56:01.916Z,73.00
2018-09-15T08:58:31.106Z,73.60
2018-09-15T09:01:00.344Z,72.80
2018-09-15T09:03:29.544Z,73.60
2018-09-15T09:05:58.748Z,72.80
2018-09-15T09:08:27.940Z,71.40
2018-09-15T09:11:03.920Z,71.60
2018-09-15T09:13:33.136Z,69.60
2018-09-15T09:16:02.335Z,68.00
2018-09-15T09:18:31.537Z,66.10
2018-09-15T09:21:00.772Z,67.20
2018-09-15T09:26:40.635Z,65.80
2018-09-15T09:29:09.829Z,67.20
2018-09-15T09:31:39.050Z,65.40
2018-09-15T09:34:08.347Z,66.10
2018-09-15T09:36:37.514Z,63.50
2018-09-15T09:39:10.276Z,61.80
2018-09-15T09:41:39.455Z,60.50
2018-09-15T09:44:08.747Z,60.20
2018-09-15T09:46:37.937Z,59.00
2018-09-15T09:49:07.372Z,58.70
2018-09-15T09:51:36.575Z,59.50
2018-09-15T09:54:05.849Z,58.40
2018-09-15T09:56:35.016Z,56.90
2018-09-15T09:59:04.212Z,57.80
2018-09-15T10:01:38.590Z,57.70
2018-09-15T10:04:07.948Z,56.20
2018-09-15T10:06:37.108Z,55.60
2018-09-15T10:09:09.620Z,55.50
2018-09-15T10:11:39.970Z,54.20
2018-09-15T10:14:09.180Z,54.20
2018-09-15T10:16:38.440Z,53.40
2018-09-15T10:19:08.632Z,53.10
2018-09-15T10:21:37.936Z,53.00
2018-09-15T10:24:07.105Z,53.90
2018-09-15T10:26:36.313Z,53.40
2018-09-15T10:29:05.781Z,53.40
2018-09-15T10:31:35.200Z,53.40
2018-09-15T10:34:05.324Z,53.20
2018-09-15T10:36:34.697Z,52.90
2018-09-15T10:39:04.957Z,52.60
2018-09-15T10:41:34.176Z,51.40
2018-09-15T10:44:03.345Z,51.60
2018-09-15T10:46:32.589Z,51.80
2018-09-15T10:49:01.785Z,51.60
2018-09-15T10:51:30.988Z,50.80
2018-09-15T10:54:00.420Z,50.60
2018-09-15T10:56:29.601Z,50.20
2018-09-15T10:58:58.774Z,50.40
2018-09-15T11:01:27.980Z,49.60
2018-09-15T11:03:57.157Z,48.30
2018-09-15T11:06:26.341Z,47.90
2018-09-15T11:08:55.606Z,47.60
2018-09-15T11:11:24.794Z,47.50
2018-09-15T11:13:53.988Z,48.10
2018-09-15T11:16:23.192Z,48.70
2018-09-15T11:18:52.393Z,48.50
2018-09-15T11:21:21.584Z,48.10
2018-09-15T11:23:50.760Z,48.00
2018-09-15T11:26:19.934Z,47.30
2018-09-15T11:28:49.175Z,47.40
2018-09-15T11:31:18.339Z,47.20
2018-09-15T11:33:47.504Z,46.80
2018-09-15T11:36:16.707Z,48.10
2018-09-15T11:38:48.651Z,48.50
2018-09-15T11:41:17.928Z,47.70
2018-09-15T11:43:47.092Z,47.80
2018-09-15T11:46:16.264Z,47.60
2018-09-15T11:48:45.437Z,47.70
2018-09-15T11:51:14.633Z,47.00
2018-09-15T11:53:43.842Z,46.80
2018-09-15T11:56:13.035Z,46.20
2018-09-15T11:58:42.205Z,46.30
2018-09-15T12:01:11.430Z,46.30
2018-09-15T12:03:40.605Z,45.10
2018-09-15T12:06:09.832Z,44.80
2018-09-15T12:08:45.808Z,44.90
2018-09-15T12:11:15.132Z,44.10
2018-09-15T12:13:44.309Z,44.40
2018-09-15T12:16:13.510Z,43.80
2018-09-15T12:18:42.679Z,44.20
2018-09-15T12:21:11.928Z,43.90
2018-09-15T12:23:41.089Z,44.80
2018-09-15T12:26:10.300Z,45.10
2018-09-15T12:28:40.110Z,44.60
2018-09-15T12:31:09.314Z,44.10
2018-09-15T12:33:38.634Z,43.90
2018-09-15T12:36:07.796Z,44.20
2018-09-15T12:38:37.144Z,44.10
2018-09-15T12:41:06.342Z,43.60
2018-09-15T12:43:35.533Z,43.60
2018-09-15T12:46:04.716Z,42.70
2018-09-15T12:48:33.886Z,43.10
2018-09-15T12:51:03.136Z,42.60
2018-09-15T12:53:32.314Z,42.10
2018-09-15T12:56:02.975Z,42.20
2018-09-15T12:58:32.161Z,42.60
2018-09-15T13:01:02.121Z,42.80
2018-09-15T13:03:31.354Z,42.90
2018-09-15T13:06:01.237Z,43.20
2018-09-15T13:08:33.971Z,43.30
2018-09-15T13:11:03.181Z,43.00
2018-09-15T13:13:32.393Z,43.50
2018-09-15T13:16:01.621Z,42.90
2018-09-15T13:18:30.805Z,42.00
2018-09-15T13:21:06.716Z,41.60
2018-09-15T13:23:35.915Z,41.50
2018-09-15T13:26:05.117Z,42.10
2018-09-15T13:28:34.292Z,41.60
2018-09-15T13:31:03.472Z,42.20
2018-09-15T13:33:32.684Z,41.70
2018-09-15T13:36:01.902Z,41.50
2018-09-15T13:38:31.089Z,41.00
2018-09-15T13:41:00.287Z,41.40
2018-09-15T13:43:29.456Z,42.30
2018-09-15T13:45:58.644Z,42.40
2018-09-15T13:48:27.822Z,42.50
2018-09-15T13:50:57.029Z,42.40
2018-09-15T13:53:26.254Z,41.80
2018-09-15T13:55:55.517Z,42.00
2018-09-15T13:58:24.712Z,41.90
2018-09-15T14:00:53.906Z,41.20
2018-09-15T14:03:23.114Z,41.40
2018-09-15T14:05:52.298Z,42.30
2018-09-15T14:08:21.501Z,41.80
2018-09-15T14:10:50.718Z,41.80
2018-09-15T14:13:20.017Z,42.10
2018-09-15T14:15:49.196Z,41.70
2018-09-15T14:18:18.384Z,42.10
2018-09-15T14:20:47.676Z,41.60
2018-09-15T14:23:17.872Z,41.90
2018-09-15T14:25:47.085Z,41.90
2018-09-15T14:28:16.616Z,42.00
2018-09-15T14:30:45.812Z,42.30
2018-09-15T14:33:15.004Z,41.90
2018-09-15T14:35:44.167Z,42.50
2018-09-15T14:38:13.353Z,42.20
2018-09-15T14:40:42.520Z,42.80
2018-09-15T14:43:11.753Z,43.30
2018-09-15T14:45:40.942Z,43.40
2018-09-15T14:48:10.192Z,43.40
2018-09-15T14:50:39.327Z,43.50
2018-09-15T14:53:08.532Z,43.40
2018-09-15T14:55:38.517Z,44.10
2018-09-15T14:58:07.713Z,44.20
2018-09-15T15:02:01.684Z,44.00
2018-09-15T15:04:30.881Z,43.90
2018-09-15T15:07:00.085Z,43.80
2018-09-15T15:09:29.287Z,43.80
2018-09-15T15:11:58.489Z,43.60
2018-09-15T15:14:27.761Z,43.50
2018-09-15T15:16:56.963Z,43.80
2018-09-15T15:19:26.204Z,43.30
2018-09-15T15:21:55.434Z,43.80
2018-09-15T15:24:24.631Z,43.80
2018-09-15T15:26:53.902Z,44.00
2018-09-15T15:29:23.080Z,44.70
2018-09-15T15:31:52.301Z,45.70
2018-09-15T15:34:21.477Z,45.60
2018-09-15T15:36:50.652Z,46.00
2018-09-15T15:39:19.829Z,45.90
2018-09-15T15:41:49.035Z,45.70
2018-09-15T15:44:18.258Z,45.70
2018-09-15T15:46:47.428Z,45.70
2018-09-15T15:49:16.647Z,46.00
2018-09-15T15:51:45.838Z,46.20
2018-09-15T15:54:15.037Z,46.30
2018-09-15T15:56:44.201Z,46.50
2018-09-15T15:59:13.501Z,46.90
2018-09-15T16:01:42.635Z,47.20
2018-09-15T16:04:11.821Z,47.20
2018-09-15T16:06:40.984Z,47.20
2018-09-15T16:09:10.172Z,47.60
2018-09-15T16:11:39.386Z,47.80
2018-09-15T16:14:08.604Z,47.70
2018-09-15T16:16:37.782Z,47.80
2018-09-15T16:19:06.972Z,47.70
2018-09-15T16:21:36.230Z,48.00
2018-09-15T16:24:05.441Z,48.00
2018-09-15T16:26:34.849Z,48.40
2018-09-15T16:29:04.045Z,48.70
2018-09-15T16:31:33.246Z,49.20
2018-09-15T16:34:02.453Z,49.00
2018-09-15T16:36:31.637Z,49.00
2018-09-15T16:39:00.865Z,49.00
2018-09-15T16:41:30.037Z,49.00
2018-09-15T16:43:59.234Z,49.00
2018-09-15T16:46:28.404Z,49.30
2018-09-15T16:48:57.592Z,49.30
2018-09-15T16:51:26.764Z,49.50
2018-09-15T16:53:55.981Z,49.20
2018-09-15T16:56:26.126Z,49.20
2018-09-15T16:58:55.405Z,49.10
2018-09-15T17:01:24.633Z,49.10
2018-09-15T17:03:53.815Z,49.20
2018-09-15T17:06:22.977Z,49.30
2018-09-15T17:08:52.183Z,49.30
2018-09-15T17:11:21.381Z,49.60
2018-09-15T17:13:50.574Z,49.70
2018-09-15T17:16:19.974Z,49.90
2018-09-15T17:18:49.245Z,50.40
2018-09-15T17:21:18.473Z,50.80
2018-09-15T17:23:47.680Z,50.90
2018-09-15T17:26:16.925Z,51.40
2018-09-15T17:28:46.125Z,51.40
2018-09-15T17:31:15.429Z,51.30
2018-09-15T17:33:44.550Z,51.30
2018-09-15T17:36:13.715Z,51.60
2018-09-15T17:38:42.915Z,52.20
2018-09-15T17:41:12.103Z,52.40
2018-09-15T17:43:41.368Z,52.70
2018-09-15T17:46:11.003Z,53.40
2018-09-15T17:48:41.060Z,53.90
2018-09-15T17:51:10.224Z,54.60
2018-09-15T17:53:39.443Z,54.80
2018-09-15T17:56:08.626Z,55.30
2018-09-15T17:58:37.849Z,55.80
2018-09-15T18:01:07.040Z,56.30
2018-09-15T18:03:36.287Z,57.10
2018-09-15T18:06:05.453Z,57.40
2018-09-15T18:08:34.652Z,58.00
2018-09-15T18:11:03.821Z,58.50
2018-09-15T18:13:33.007Z,59.40
2018-09-15T18:16:02.185Z,59.50
2018-09-15T18:18:31.390Z,59.70
2018-09-15T18:21:00.552Z,59.80
2018-09-15T18:23:29.749Z,59.80
2018-09-15T18:25:59.174Z,60.50
2018-09-15T18:28:28.373Z,61.30
2018-09-15T18:30:57.548Z,61.50
2018-09-15T18:33:26.745Z,61.90
2018-09-15T18:35:55.955Z,62.20
2018-09-15T18:38:25.128Z,62.70
2018-09-15T18:40:54.289Z,62.50
2018-09-15T18:43:23.490Z,62.60
2018-09-15T18:45:52.800Z,63.30
2018-09-15T18:48:21.982Z,63.30
2018-09-15T18:50:51.239Z,64.30
2018-09-15T18:53:20.385Z,64.40
2018-09-15T18:55:49.593Z,64.40
2018-09-15T18:58:18.825Z,64.80
2018-09-15T19:00:48.032Z,65.00
2018-09-15T19:03:17.219Z,65.20
2018-09-15T19:05:47.156Z,65.80
2018-09-15T19:08:16.292Z,66.60
2018-09-15T19:10:45.489Z,67.60
2018-09-15T19:13:14.702Z,68.30
2018-09-15T19:15:43.920Z,67.90
2018-09-15T19:18:13.125Z,68.40
2018-09-15T19:20:42.343Z,68.30
2018-09-15T19:23:11.519Z,68.20
2018-09-15T19:25:40.730Z,68.10
2018-09-15T19:28:09.899Z,68.70
2018-09-15T19:30:39.114Z,68.70
2018-09-15T19:33:08.308Z,68.90
2018-09-15T19:35:37.517Z,69.20
2018-09-15T19:38:06.740Z,70.00
2018-09-15T19:40:35.944Z,70.40
2018-09-15T19:43:05.120Z,70.20
2018-09-15T19:45:34.386Z,70.60
2018-09-15T19:48:03.549Z,70.20
2018-09-15T19:50:32.756Z,70.90
2018-09-15T19:53:01.962Z,71.20
2018-09-15T19:55:31.159Z,72.00
2018-09-15T19:58:00.341Z,72.20
2018-09-15T20:00:29.549Z,72.50
2018-09-15T20:02:58.750Z,73.00
2018-09-15T20:05:27.969Z,73.60
2018-09-15T20:07:57.295Z,73.00
2018-09-15T20:10:26.613Z,71.90
2018-09-15T20:12:55.838Z,73.20
2018-09-15T20:15:26.857Z,72.40
2018-09-15T20:17:54.540Z,72.70
2018-09-15T20:20:23.101Z,73.50
2018-09-15T20:22:54.627Z,74.30
2018-09-15T20:25:23.864Z,74.80
2018-09-15T20:27:53.036Z,75.70
2018-09-15T20:30:22.233Z,76.70
2018-09-15T20:32:51.501Z,77.20
2018-09-15T20:35:20.642Z,76.90
2018-09-15T20:37:49.817Z,77.10
2018-09-15T20:40:19.072Z,76.90
2018-09-15T20:42:48.268Z,77.00
2018-09-15T20:45:17.449Z,77.40
2018-09-15T20:47:46.670Z,77.20
2018-09-15T20:50:15.875Z,77.20
2018-09-15T20:52:45.061Z,77.50
2018-09-15T20:55:14.247Z,77.40
2018-09-15T20:57:43.408Z,77.40
2018-09-15T21:00:12.617Z,77.80
2018-09-15T21:02:42.205Z,77.60
2018-09-15T21:05:11.820Z,77.90
2018-09-15T21:07:41.040Z,78.50
2018-09-15T21:10:10.228Z,78.40
2018-09-15T21:12:39.402Z,78.20
2018-09-15T21:15:08.616Z,77.90
2018-09-15T21:17:37.788Z,77.90
2018-09-15T21:20:13.486Z,78.10
2018-09-15T21:22:42.668Z,78.20
2018-09-15T21:25:11.901Z,78.70
2018-09-15T21:27:41.064Z,79.00
2018-09-15T21:30:10.248Z,79.30
2018-09-15T21:32:39.450Z,79.90
2018-09-15T21:35:08.668Z,79.70
2018-09-15T21:37:37.866Z,79.80
2018-09-15T21:40:07.058Z,79.30
2018-09-15T21:42:36.228Z,79.80
2018-09-15T21:45:05.437Z,79.90
2018-09-15T21:47:34.619Z,81.30
2018-09-15T21:50:03.835Z,80.60
2018-09-15T21:52:33.008Z,80.20
2018-09-15T21:55:02.212Z,80.90
2018-09-15T21:57:31.383Z,80.80
2018-09-15T22:00:00.598Z,80.80
2018-09-15T22:02:32.559Z,81.40
2018-09-15T22:05:01.770Z,81.60
2018-09-15T22:07:30.949Z,81.80
2018-09-15T22:10:00.129Z,81.30
2018-09-15T22:12:29.332Z,81.40
2018-09-15T22:14:58.512Z,81.50
2018-09-15T22:17:28.669Z,81.40
2018-09-15T22:19:57.912Z,81.60
2018-09-15T22:22:27.151Z,81.60
2018-09-15T22:24:56.300Z,81.60
2018-09-15T22:27:31.705Z,82.10
2018-09-15T22:30:00.893Z,82.90
2018-09-15T22:32:30.071Z,83.30
2018-09-15T22:34:59.277Z,83.10
2018-09-15T22:37:28.473Z,83.10
2018-09-15T22:39:57.640Z,83.20
2018-09-15T22:42:26.835Z,83.60
2018-09-15T22:44:56.002Z,83.60
2018-09-15T22:47:25.197Z,83.40
2018-09-15T22:49:54.363Z,83.90
2018-09-15T22:52:23.545Z,84.70
2018-09-15T22:54:52.729Z,83.90
2018-09-15T22:57:21.919Z,84.70
2018-09-15T22:59:51.132Z,84.90
2018-09-15T23:02:20.325Z,84.90
2018-09-15T23:04:49.501Z,85.50
2018-09-15T23:07:18.737Z,84.90
2018-09-15T23:09:47.948Z,86.30
2018-09-15T23:12:17.177Z,85.90
2018-09-15T23:14:46.361Z,86.00
2018-09-15T23:17:15.567Z,86.30
2018-09-15T23:19:44.940Z,86.30
2018-09-15T23:22:14.153Z,86.10
2018-09-15T23:24:43.329Z,86.30
2018-09-15T23:27:12.536Z,86.20
2018-09-15T23:29:41.720Z,86.30
2018-09-15T23:32:10.937Z,86.40
2018-09-15T23:34:40.125Z,86.20
2018-09-15T23:37:09.316Z,87.10
2018-09-15T23:39:38.484Z,86.50
2018-09-15T23:42:07.681Z,86.20
2018-09-15T23:44:36.889Z,86.50
2018-09-15T23:47:06.119Z,87.00
2018-09-15T23:49:35.318Z,87.40
2018-09-15T23:52:04.550Z,87.50
2018-09-15T23:54:33.726Z,87.90
2018-09-15T23:57:02.922Z,88.10
2018-09-15T23:59:32.137Z,88.30
